Time;durP1;ratioP1;P1;durP2;ratioP2;P2;SDS_P1;SDS_P2;PMS_P1;PMS_P2;Temp;Humidity;BMP_temperature;BMP_pressure;BME280_temperature;BME280_humidity;BME280_pressure;Samples;Min_cycle;Max_cycle;Signal;HPM_P1;HPM_P2
2021/07/03 00:01:25;;;;;;;17.77;10.98;;;;;;;;;;5075672;28;20071;-75
2021/07/03 00:03:51;;;;;;;15.18;10.25;;;;;;;;;;5075577;28;20035;-75
2021/07/03 00:06:16;;;;;;;11.80;9.95;;;;;;;;;;5074140;28;20044;-75
2021/07/03 00:08:42;;;;;;;13.93;9.73;;;;;;;;;;5075517;28;20033;-75
2021/07/03 00:11:08;;;;;;;18.17;11.07;;;;;;;;;;5075444;28;20501;-75
2021/07/03 00:13:34;;;;;;;12.45;9.70;;;;;;;;;;5074272;28;20032;-75
2021/07/03 00:16:00;;;;;;;86.38;9.75;;;;;;;;;;5073844;28;20470;-75
2021/07/03 00:18:26;;;;;;;22.17;10.38;;;;;;;;;;5075309;28;20031;-75
2021/07/03 00:20:51;;;;;;;14.38;9.35;;;;;;;;;;5075122;28;20043;-75
2021/07/03 00:23:17;;;;;;;12.05;9.90;;;;;;;;;;5073224;28;20028;-75
2021/07/03 00:25:42;;;;;;;15.00;9.52;;;;;;;;;;5075323;28;20532;-75
2021/07/03 00:28:08;;;;;;;10.80;9.02;;;;;;;;;;5074962;28;20089;-75
2021/07/03 00:30:34;;;;;;;11.45;9.05;;;;;;;;;;5073937;28;20033;-75
2021/07/03 00:32:59;;;;;;;13.07;9.93;;;;;;;;;;5075138;28;20024;-75
2021/07/03 00:35:25;;;;;;;22.92;9.18;;;;;;;;;;5074974;28;20367;-75
2021/07/03 00:37:50;;;;;;;19.88;11.35;;;;;;;;;;5056887;28;20028;-75
2021/07/03 00:40:16;;;;;;;13.40;9.25;;;;;;;;;;5075184;28;20536;-75
2021/07/03 00:42:42;;;;;;;12.90;9.93;;;;;;;;;;5057107;28;20028;-75
2021/07/03 00:45:09;;;;;;;17.17;10.25;;;;;;;;;;5073465;28;20570;-75
2021/07/03 00:47:35;;;;;;;10.63;8.95;;;;;;;;;;5073560;28;20033;-75
2021/07/03 00:50:02;;;;;;;13.88;9.55;;;;;;;;;;5073341;28;20351;-75
2021/07/03 00:52:28;;;;;;;15.40;9.85;;;;;;;;;;5072645;28;20025;-75
2021/07/03 00:54:54;;;;;;;20.90;9.35;;;;;;;;;;5073003;28;20043;-75
2021/07/03 00:57:22;;;;;;;16.67;9.82;;;;;;;;;;5074623;28;20032;-75
2021/07/03 00:59:48;;;;;;;12.77;8.88;;;;;;;;;;5074599;28;20029;-75
2021/07/03 01:02:20;;;;;;;14.73;9.48;;;;;;;;;;5072959;28;20081;-75
2021/07/03 01:04:47;;;;;;;13.23;9.40;;;;;;;;;;5074301;28;20474;-75
2021/07/03 01:07:13;;;;;;;15.80;9.90;;;;;;;;;;5055874;28;20044;-75
2021/07/03 01:09:40;;;;;;;17.08;9.48;;;;;;;;;;5074142;28;20111;-75
2021/07/03 01:12:09;;;;;;;16.55;9.40;;;;;;;;;;5074484;28;20103;-75
2021/07/03 01:14:45;;;;;;;17.33;10.13;;;;;;;;;;5056218;28;20036;-75
2021/07/03 01:17:14;;;;;;;26.45;11.85;;;;;;;;;;5072764;28;20066;-75
2021/07/03 01:19:41;;;;;;;28.73;12.30;;;;;;;;;;5074416;28;20055;-75
2021/07/03 01:22:09;;;;;;;24.85;12.35;;;;;;;;;;5072125;28;20489;-75
2021/07/03 01:24:35;;;;;;;24.27;12.43;;;;;;;;;;5074076;28;20025;-75
2021/07/03 01:27:01;;;;;;;39.08;13.07;;;;;;;;;;5072818;28;20033;-75
2021/07/03 01:29:28;;;;;;;33.05;13.57;;;;;;;;;;5073565;28;20032;-75
2021/07/03 01:31:56;;;;;;;33.60;13.43;;;;;;;;;;5072763;28;20470;-75
2021/07/03 01:34:24;;;;;;;24.45;13.68;;;;;;;;;;5072805;28;20024;-75
2021/07/03 01:36:50;;;;;;;29.15;12.88;;;;;;;;;;5072353;28;20029;-75
2021/07/03 01:39:16;;;;;;;23.05;13.32;;;;;;;;;;5073375;28;20534;-75
2021/07/03 01:41:42;;;;;;;27.58;12.60;;;;;;;;;;5073738;28;20032;-76
2021/07/03 01:44:11;;;;;;;36.03;13.70;;;;;;;;;;5072212;28;20036;-75
2021/07/03 01:46:37;;;;;;;23.17;12.50;;;;;;;;;;5072855;28;20422;-75
2021/07/03 01:49:05;;;;;;;20.80;13.35;;;;;;;;;;5072273;28;20047;-75
2021/07/03 01:51:38;;;;;;;21.40;13.65;;;;;;;;;;5072489;28;20137;-75
2021/07/03 01:54:04;;;;;;;20.60;12.18;;;;;;;;;;5072939;28;20056;-75
2021/07/03 01:56:30;;;;;;;19.25;12.85;;;;;;;;;;5072283;28;20035;-75
2021/07/03 01:58:58;;;;;;;21.63;12.77;;;;;;;;;;5073052;28;20032;-75
2021/07/03 02:01:31;;;;;;;21.08;11.85;;;;;;;;;;5072351;28;20040;-75
2021/07/03 02:03:56;;;;;;;48.85;10.98;;;;;;;;;;5073342;28;20029;-75
2021/07/03 02:06:32;;;;;;;15.40;10.68;;;;;;;;;;5071993;28;20036;-75
2021/07/03 02:08:58;;;;;;;14.95;11.05;;;;;;;;;;5072162;28;20029;-75
2021/07/03 02:11:23;;;;;;;16.33;11.25;;;;;;;;;;5072263;28;20032;-75
2021/07/03 02:13:57;;;;;;;15.70;10.77;;;;;;;;;;5071847;28;20067;-75
2021/07/03 02:16:30;;;;;;;13.43;10.60;;;;;;;;;;5071993;28;20040;-75
2021/07/03 02:18:57;;;;;;;20.95;10.57;;;;;;;;;;5072759;28;20032;-75
2021/07/03 02:21:29;;;;;;;13.77;10.00;;;;;;;;;;5071401;28;20375;-75
2021/07/03 02:23:55;;;;;;;13.82;10.38;;;;;;;;;;5071116;28;20034;-75
2021/07/03 02:26:22;;;;;;;17.13;10.77;;;;;;;;;;5071031;28;20028;-75
2021/07/03 02:28:49;;;;;;;16.88;10.43;;;;;;;;;;5073106;28;20111;-75
2021/07/03 02:31:21;;;;;;;21.63;9.88;;;;;;;;;;5072100;28;20024;-75
2021/07/03 02:33:54;;;;;;;13.48;9.32;;;;;;;;;;5071571;28;20039;-75
2021/07/03 02:36:21;;;;;;;18.50;10.13;;;;;;;;;;5072989;28;20040;-75
2021/07/03 02:38:47;;;;;;;12.57;9.50;;;;;;;;;;5071604;28;20390;-75
2021/07/03 02:41:16;;;;;;;10.57;8.77;;;;;;;;;;5071697;28;20039;-75
2021/07/03 02:43:43;;;;;;;12.82;9.45;;;;;;;;;;5071857;28;20577;-75
2021/07/03 02:46:11;;;;;;;16.63;10.30;;;;;;;;;;5071238;28;20044;-75
2021/07/03 02:48:37;;;;;;;17.38;9.93;;;;;;;;;;5071458;28;20040;-75
2021/07/03 02:51:02;;;;;;;49.72;10.88;;;;;;;;;;5071619;28;20421;-75
2021/07/03 02:53:29;;;;;;;15.10;10.32;;;;;;;;;;5075187;28;20517;-76
2021/07/03 02:55:55;;;;;;;118.80;12.63;;;;;;;;;;5075203;28;20032;-75
2021/07/03 02:58:22;;;;;;;113.10;12.80;;;;;;;;;;5077010;28;20421;-75
2021/07/03 03:00:47;;;;;;;72.22;12.05;;;;;;;;;;5059001;28;20029;-75
2021/07/03 03:03:13;;;;;;;83.07;13.25;;;;;;;;;;5075534;28;20064;-75
2021/07/03 03:05:39;;;;;;;39.55;12.02;;;;;;;;;;5075234;28;20060;-76
2021/07/03 03:08:05;;;;;;;17.23;11.95;;;;;;;;;;5076823;28;20029;-75
2021/07/03 03:10:32;;;;;;;28.10;12.38;;;;;;;;;;5076485;28;20032;-75
2021/07/03 03:12:58;;;;;;;19.45;10.93;;;;;;;;;;5076576;28;20032;-75
2021/07/03 03:15:28;;;;;;;14.38;10.98;;;;;;;;;;5075385;28;20542;-75
2021/07/03 03:17:58;;;;;;;18.40;10.85;;;;;;;;;;5074509;28;20044;-75
2021/07/03 03:20:24;;;;;;;13.35;11.00;;;;;;;;;;5074863;28;20535;-75
2021/07/03 03:22:50;;;;;;;14.48;9.60;;;;;;;;;;5074542;28;20036;-75
2021/07/03 03:25:17;;;;;;;9.88;8.70;;;;;;;;;;5076352;28;20451;-75
2021/07/03 03:27:43;;;;;;;14.95;9.07;;;;;;;;;;5076458;28;20047;-75
2021/07/03 03:30:10;;;;;;;17.35;9.43;;;;;;;;;;5076022;28;20024;-75
2021/07/03 03:32:39;;;;;;;16.85;9.00;;;;;;;;;;5058826;28;20029;-75
2021/07/03 03:35:07;;;;;;;11.02;8.35;;;;;;;;;;5074697;28;20119;-75
2021/07/03 03:37:33;;;;;;;18.88;8.85;;;;;;;;;;5074771;28;20036;-75
2021/07/03 03:39:58;;;;;;;10.52;8.15;;;;;;;;;;5074830;28;20170;-75
2021/07/03 03:42:24;;;;;;;12.23;8.35;;;;;;;;;;5074947;28;20085;-75
2021/07/03 03:44:51;;;;;;;9.90;8.35;;;;;;;;;;5075766;28;20028;-76
2021/07/03 03:47:17;;;;;;;12.05;8.65;;;;;;;;;;5073416;28;20051;-75
2021/07/03 03:49:43;;;;;;;17.73;8.25;;;;;;;;;;5074938;28;20117;-75
2021/07/03 03:52:15;;;;;;;19.80;8.13;;;;;;;;;;5072552;28;20036;-75
2021/07/03 03:54:41;;;;;;;35.08;8.98;;;;;;;;;;5073247;28;20394;-75
2021/07/03 03:57:23;;;;;;;53.08;10.60;;;;;;;;;;5073449;28;20035;-75
2021/07/03 03:59:52;;;;;;;105.88;10.60;;;;;;;;;;5073136;28;20064;-75
2021/07/03 04:02:20;;;;;;;29.38;9.55;;;;;;;;;;5074222;28;20044;-75
2021/07/03 04:04:46;;;;;;;123.20;11.88;;;;;;;;;;5073417;28;20028;-75
2021/07/03 04:07:14;;;;;;;137.82;12.57;;;;;;;;;;5074108;28;20043;-75
2021/07/03 04:09:40;;;;;;;30.05;10.75;;;;;;;;;;5072067;28;20119;-75
2021/07/03 04:12:06;;;;;;;65.00;12.25;;;;;;;;;;5072913;28;20549;-75
2021/07/03 04:14:31;;;;;;;93.93;12.07;;;;;;;;;;5074367;28;20044;-75
2021/07/03 04:16:58;;;;;;;136.40;13.35;;;;;;;;;;5074447;28;20119;-75
2021/07/03 04:19:23;;;;;;;200.00;13.27;;;;;;;;;;5074331;28;20047;-75
2021/07/03 04:21:49;;;;;;;58.60;11.43;;;;;;;;;;5074036;28;20033;-75
2021/07/03 04:24:14;;;;;;;70.43;11.60;;;;;;;;;;5073263;28;20111;-75
2021/07/03 04:26:40;;;;;;;14.13;10.57;;;;;;;;;;5072524;28;20658;-75
2021/07/03 04:29:05;;;;;;;66.50;11.75;;;;;;;;;;5074143;28;20036;-75
2021/07/03 04:31:31;;;;;;;75.95;10.07;;;;;;;;;;5074243;28;20040;-75
2021/07/03 04:33:56;;;;;;;106.20;9.73;;;;;;;;;;5073903;28;20024;-75
2021/07/03 04:36:22;;;;;;;174.52;9.68;;;;;;;;;;5074034;28;20066;-75
2021/07/03 04:38:47;;;;;;;54.90;8.50;;;;;;;;;;5072512;28;20056;-75
2021/07/03 04:41:13;;;;;;;107.05;11.60;;;;;;;;;;5073972;28;20655;-75
2021/07/03 04:43:38;;;;;;;21.00;9.93;;;;;;;;;;5073474;28;20082;-75
2021/07/03 04:46:04;;;;;;;12.80;9.70;;;;;;;;;;5038297;28;1029215;-75
2021/07/03 04:48:37;;;;;;;20.02;9.30;;;;;;;;;;5073470;28;20060;-75
2021/07/03 04:51:03;;;;;;;44.03;9.23;;;;;;;;;;5074839;28;20071;-75
2021/07/03 04:53:28;;;;;;;68.13;9.07;;;;;;;;;;5073726;28;20041;-75
2021/07/03 04:55:54;;;;;;;11.15;7.88;;;;;;;;;;5074358;28;20036;-75
2021/07/03 04:58:19;;;;;;;11.18;8.60;;;;;;;;;;5074662;28;20029;-75
2021/07/03 05:00:44;;;;;;;19.60;7.95;;;;;;;;;;5074698;28;20463;-75
2021/07/03 05:03:10;;;;;;;102.32;8.27;;;;;;;;;;5074557;28;20158;-75
2021/07/03 05:05:35;;;;;;;144.27;8.23;;;;;;;;;;5074345;28;20028;-75
2021/07/03 05:08:01;;;;;;;8.45;7.05;;;;;;;;;;5073562;28;20082;-75
2021/07/03 05:10:26;;;;;;;20.42;6.97;;;;;;;;;;5073988;28;20044;-75
2021/07/03 05:12:52;;;;;;;14.35;6.75;;;;;;;;;;5074273;28;20036;-74
2021/07/03 05:15:18;;;;;;;9.35;6.80;;;;;;;;;;5073515;28;20028;-74
2021/07/03 05:17:44;;;;;;;8.85;6.60;;;;;;;;;;5072828;28;20409;-75
2021/07/03 05:20:10;;;;;;;26.45;6.65;;;;;;;;;;5074443;28;20513;-74
2021/07/03 05:22:35;;;;;;;11.90;7.40;;;;;;;;;;5072232;28;20063;-75
2021/07/03 05:25:01;;;;;;;26.77;8.10;;;;;;;;;;5072633;28;20048;-75
2021/07/03 05:27:26;;;;;;;11.77;7.50;;;;;;;;;;5073815;28;20040;-75
2021/07/03 05:29:52;;;;;;;7.53;6.40;;;;;;;;;;5073008;28;20047;-75
2021/07/03 05:32:17;;;;;;;81.95;7.97;;;;;;;;;;5055840;28;20044;-75
2021/07/03 05:34:43;;;;;;;30.02;7.88;;;;;;;;;;5074037;28;20049;-75
2021/07/03 05:37:08;;;;;;;10.18;7.65;;;;;;;;;;5072655;28;20042;-75
2021/07/03 05:39:34;;;;;;;24.00;7.45;;;;;;;;;;5073233;28;20106;-75
2021/07/03 05:42:00;;;;;;;7.10;5.75;;;;;;;;;;5073586;28;20047;-75
2021/07/03 05:44:25;;;;;;;6.90;5.70;;;;;;;;;;5072319;28;20028;-75
2021/07/03 05:46:51;;;;;;;11.50;6.07;;;;;;;;;;5072314;28;20078;-75
2021/07/03 05:49:17;;;;;;;6.90;6.20;;;;;;;;;;5073374;28;20031;-75
2021/07/03 05:51:43;;;;;;;152.02;8.63;;;;;;;;;;5073489;28;20368;-75
2021/07/03 05:54:08;;;;;;;94.82;7.75;;;;;;;;;;5073681;28;20391;-75
2021/07/03 05:56:34;;;;;;;56.15;7.43;;;;;;;;;;5072887;28;20032;-75
2021/07/03 05:59:01;;;;;;;7.25;6.05;;;;;;;;;;5073362;28;20355;-75
2021/07/03 06:01:27;;;;;;;10.60;6.15;;;;;;;;;;5071108;28;20037;-75
2021/07/03 06:03:53;;;;;;;10.73;6.43;;;;;;;;;;5073566;28;20031;-75
2021/07/03 06:06:18;;;;;;;7.93;6.22;;;;;;;;;;5073491;28;20033;-76
2021/07/03 06:08:44;;;;;;;8.00;5.95;;;;;;;;;;5072951;28;20111;-74
2021/07/03 06:11:09;;;;;;;12.93;6.30;;;;;;;;;;5073349;28;20032;-75
2021/07/03 06:13:35;;;;;;;8.68;6.60;;;;;;;;;;5073209;28;20041;-74
2021/07/03 06:16:01;;;;;;;18.92;6.40;;;;;;;;;;5073570;28;20024;-74
2021/07/03 06:18:26;;;;;;;14.93;7.00;;;;;;;;;;5073390;28;20386;-74
2021/07/03 06:20:52;;;;;;;9.13;6.55;;;;;;;;;;5073295;28;20037;-73
2021/07/03 06:23:18;;;;;;;8.00;6.63;;;;;;;;;;5070301;28;20036;-74
2021/07/03 06:25:43;;;;;;;69.70;7.90;;;;;;;;;;5072755;28;20078;-74
2021/07/03 06:28:09;;;;;;;22.40;7.30;;;;;;;;;;5072265;28;20032;-74
2021/07/03 06:30:34;;;;;;;8.02;6.60;;;;;;;;;;5073185;28;20486;-75
2021/07/03 06:33:00;;;;;;;10.70;6.32;;;;;;;;;;5073028;28;20025;-75
2021/07/03 06:35:25;;;;;;;9.20;6.72;;;;;;;;;;5072958;28;20402;-74
2021/07/03 06:37:50;;;;;;;8.68;6.88;;;;;;;;;;5072586;28;20047;-74
2021/07/03 06:40:16;;;;;;;10.15;7.30;;;;;;;;;;5072839;28;20044;-78
2021/07/03 06:42:41;;;;;;;22.20;8.90;;;;;;;;;;5073057;28;20036;-75
2021/07/03 06:45:07;;;;;;;9.27;6.90;;;;;;;;;;5072855;28;20068;-74
2021/07/03 06:47:33;;;;;;;8.52;7.00;;;;;;;;;;5071606;28;20040;-74
2021/07/03 06:49:58;;;;;;;7.75;6.63;;;;;;;;;;5072534;28;20035;-75
2021/07/03 06:52:23;;;;;;;8.77;6.47;;;;;;;;;;5071981;28;20032;-75
2021/07/03 06:54:49;;;;;;;8.23;6.97;;;;;;;;;;5072179;28;20090;-75
2021/07/03 06:57:14;;;;;;;9.07;6.88;;;;;;;;;;5072699;28;20048;-75
2021/07/03 06:59:40;;;;;;;10.13;7.65;;;;;;;;;;5072738;28;20032;-75
2021/07/03 07:02:05;;;;;;;9.88;7.07;;;;;;;;;;5072335;28;20119;-75
2021/07/03 07:04:31;;;;;;;8.40;6.57;;;;;;;;;;5071541;28;20036;-74
2021/07/03 07:06:57;;;;;;;8.07;6.68;;;;;;;;;;5072234;28;20028;-74
2021/07/03 07:09:24;;;;;;;8.73;6.85;;;;;;;;;;5072799;28;20073;-74
2021/07/03 07:11:50;;;;;;;10.52;7.22;;;;;;;;;;5071614;28;20040;-75
2021/07/03 07:14:16;;;;;;;7.68;6.72;;;;;;;;;;5071303;28;20067;-75
2021/07/03 07:16:41;;;;;;;9.25;7.30;;;;;;;;;;5072286;28;20611;-75
2021/07/03 07:19:08;;;;;;;8.55;7.30;;;;;;;;;;5072651;28;20138;-77
2021/07/03 07:21:34;;;;;;;8.45;7.05;;;;;;;;;;5072263;28;20033;-75
2021/07/03 07:24:00;;;;;;;9.00;7.88;;;;;;;;;;5072160;28;20028;-76
2021/07/03 07:26:25;;;;;;;8.95;7.15;;;;;;;;;;5073444;28;20375;-77
2021/07/03 07:28:51;;;;;;;9.80;7.30;;;;;;;;;;5072426;28;20032;-75
2021/07/03 07:31:19;;;;;;;9.60;6.97;;;;;;;;;;5072589;28;20044;-74
2021/07/03 07:33:45;;;;;;;10.20;7.15;;;;;;;;;;5071272;28;20112;-75
2021/07/03 07:36:11;;;;;;;9.70;7.40;;;;;;;;;;5072470;28;20453;-75
2021/07/03 07:38:37;;;;;;;8.13;7.28;;;;;;;;;;5073837;28;20047;-74
2021/07/03 07:41:03;;;;;;;11.88;7.75;;;;;;;;;;5074719;28;20028;-75
2021/07/03 07:43:28;;;;;;;12.50;6.57;;;;;;;;;;5076014;28;20147;-75
2021/07/03 07:45:56;;;;;;;8.38;6.60;;;;;;;;;;5075518;28;20048;-75
2021/07/03 07:48:22;;;;;;;14.57;10.45;;;;;;;;;;5076093;28;20040;-75
2021/07/03 07:50:48;;;;;;;11.00;6.70;;;;;;;;;;5076036;28;20076;-76
2021/07/03 07:53:13;;;;;;;9.40;6.50;;;;;;;;;;5075448;28;20512;-76
2021/07/03 07:55:38;;;;;;;11.48;6.07;;;;;;;;;;5074932;28;20036;-75
2021/07/03 07:58:04;;;;;;;7.18;5.93;;;;;;;;;;5074428;28;20112;-75
2021/07/03 08:00:30;;;;;;;9.05;5.68;;;;;;;;;;5075941;28;20032;-76
2021/07/03 08:02:55;;;;;;;7.70;5.07;;;;;;;;;;5075644;28;20363;-75
2021/07/03 08:05:21;;;;;;;7.28;5.90;;;;;;;;;;5075695;28;20044;-77
2021/07/03 08:07:46;;;;;;;8.55;5.32;;;;;;;;;;5075546;28;20032;-73
2021/07/03 08:10:12;;;;;;;11.05;5.88;;;;;;;;;;5074518;28;20094;-75
2021/07/03 08:12:39;;;;;;;5.85;5.25;;;;;;;;;;5075271;28;20028;-76
2021/07/03 08:15:05;;;;;;;7.22;6.03;;;;;;;;;;5075552;28;20036;-75
2021/07/03 08:17:31;;;;;;;5.90;4.97;;;;;;;;;;5075132;28;20530;-75
2021/07/03 08:19:57;;;;;;;5.75;4.88;;;;;;;;;;5075323;28;20037;-75
2021/07/03 08:22:23;;;;;;;6.00;5.13;;;;;;;;;;5074344;28;20044;-76
2021/07/03 08:24:48;;;;;;;7.13;5.50;;;;;;;;;;5074903;28;20028;-75
2021/07/03 08:27:14;;;;;;;6.95;5.10;;;;;;;;;;5074950;28;20074;-75
2021/07/03 08:29:39;;;;;;;8.70;5.78;;;;;;;;;;5075080;28;20043;-76
2021/07/03 08:32:05;;;;;;;9.82;5.40;;;;;;;;;;5074088;28;20033;-75
2021/07/03 08:34:30;;;;;;;8.25;5.93;;;;;;;;;;5073746;28;20457;-75
2021/07/03 08:36:56;;;;;;;8.02;6.03;;;;;;;;;;5073290;28;20037;-75
2021/07/03 08:39:21;;;;;;;8.60;5.25;;;;;;;;;;5074976;28;20040;-75
2021/07/03 08:41:46;;;;;;;7.28;5.50;;;;;;;;;;5075266;28;20166;-76
2021/07/03 08:44:13;;;;;;;7.95;5.07;;;;;;;;;;5075055;28;20029;-75
2021/07/03 08:46:42;;;;;;;8.98;6.90;;;;;;;;;;5074615;28;20049;-75
2021/07/03 08:49:08;;;;;;;8.35;6.55;;;;;;;;;;5073656;28;20032;-75
2021/07/03 08:51:34;;;;;;;7.78;6.00;;;;;;;;;;5074095;28;20051;-75
2021/07/03 08:54:01;;;;;;;10.43;6.15;;;;;;;;;;5074499;28;20032;-75
2021/07/03 08:56:27;;;;;;;9.88;6.40;;;;;;;;;;5074185;28;20024;-75
2021/07/03 08:58:52;;;;;;;9.82;5.90;;;;;;;;;;5073188;28;20524;-75
2021/07/03 09:01:18;;;;;;;7.82;5.70;;;;;;;;;;5074715;28;20048;-75
2021/07/03 09:03:51;;;;;;;6.55;4.93;;;;;;;;;;5074332;28;20041;-76
2021/07/03 09:06:17;;;;;;;9.45;5.68;;;;;;;;;;5074495;28;20035;-76
2021/07/03 09:08:51;;;;;;;9.70;5.43;;;;;;;;;;5074612;28;20029;-75
2021/07/03 09:11:18;;;;;;;12.43;5.25;;;;;;;;;;5074295;28;20029;-75
2021/07/03 09:13:44;;;;;;;7.65;5.60;;;;;;;;;;5074213;28;20032;-75
2021/07/03 09:16:09;;;;;;;8.02;4.43;;;;;;;;;;5074366;28;20040;-76
2021/07/03 09:18:35;;;;;;;8.77;4.13;;;;;;;;;;5074205;28;20041;-76
2021/07/03 09:21:02;;;;;;;7.30;4.72;;;;;;;;;;5074524;28;20032;-76
2021/07/03 09:23:32;;;;;;;11.82;4.88;;;;;;;;;;5074215;28;20428;-76
2021/07/03 09:25:59;;;;;;;10.23;4.97;;;;;;;;;;5073648;28;20039;-76
2021/07/03 09:28:27;;;;;;;8.75;4.38;;;;;;;;;;5075452;28;20051;-78
2021/07/03 09:30:56;;;;;;;10.60;4.45;;;;;;;;;;5075032;28;20068;-78
2021/07/03 09:33:30;;;;;;;7.95;4.20;;;;;;;;;;5077029;28;20079;-78
2021/07/03 09:36:00;;;;;;;7.35;3.83;;;;;;;;;;5078329;28;20123;-80
2021/07/03 09:38:31;;;;;;;8.50;4.88;;;;;;;;;;5075988;28;20036;-79
2021/07/03 09:41:09;;;;;;;7.10;4.88;;;;;;;;;;5078299;28;20033;-78
2021/07/03 09:43:36;;;;;;;6.35;4.18;;;;;;;;;;5076870;28;20044;-79
2021/07/03 09:46:02;;;;;;;5.45;3.63;;;;;;;;;;5076676;28;20116;-79
2021/07/03 09:48:27;;;;;;;10.80;4.40;;;;;;;;;;5075600;28;20498;-78
2021/07/03 09:50:53;;;;;;;5.40;3.72;;;;;;;;;;5075939;28;20036;-79
2021/07/03 09:53:19;;;;;;;6.43;3.67;;;;;;;;;;5074128;28;20029;-78
2021/07/03 09:55:45;;;;;;;10.15;3.92;;;;;;;;;;5076576;28;20039;-78
2021/07/03 09:58:12;;;;;;;5.13;3.67;;;;;;;;;;5077445;28;20036;-78
2021/07/03 10:00:38;;;;;;;5.93;3.92;;;;;;;;;;5078835;28;20055;-78
2021/07/03 10:03:06;;;;;;;6.57;4.28;;;;;;;;;;5079462;28;20455;-79
2021/07/03 10:05:37;;;;;;;11.65;4.03;;;;;;;;;;5077628;28;20097;-78
2021/07/03 10:08:08;;;;;;;11.07;3.40;;;;;;;;;;5075675;28;20375;-78
2021/07/03 10:10:36;;;;;;;8.35;4.53;;;;;;;;;;5075783;28;20370;-78
2021/07/03 10:13:16;;;;;;;7.15;4.10;;;;;;;;;;5073983;28;20044;-78
2021/07/03 10:15:42;;;;;;;7.35;3.45;;;;;;;;;;5074354;28;20037;-78
2021/07/03 10:18:19;;;;;;;9.90;4.75;;;;;;;;;;5072107;28;20135;-77
2021/07/03 10:20:44;;;;;;;12.75;4.35;;;;;;;;;;5073357;28;20085;-78
2021/07/03 10:23:11;;;;;;;6.03;3.53;;;;;;;;;;5075147;28;20044;-78
2021/07/03 10:25:39;;;;;;;6.05;3.15;;;;;;;;;;5073965;28;20024;-78
2021/07/03 10:28:13;;;;;;;5.95;4.03;;;;;;;;;;5073811;28;20037;-78
2021/07/03 10:30:42;;;;;;;12.18;5.45;;;;;;;;;;5073831;28;20035;-78
2021/07/03 10:33:15;;;;;;;7.00;3.88;;;;;;;;;;5072489;28;20041;-78
2021/07/03 10:35:49;;;;;;;7.68;4.03;;;;;;;;;;5072919;28;20052;-78
2021/07/03 10:38:23;;;;;;;9.63;4.57;;;;;;;;;;5073449;28;20517;-77
2021/07/03 10:40:51;;;;;;;10.32;4.07;;;;;;;;;;5073525;28;20078;-78
2021/07/03 10:43:17;;;;;;;11.63;5.05;;;;;;;;;;5073267;28;20040;-78
2021/07/03 10:45:45;;;;;;;7.63;3.80;;;;;;;;;;5072828;28;20363;-77
2021/07/03 10:48:28;;;;;;;8.55;4.65;;;;;;;;;;5072779;28;20028;-77
2021/07/03 10:50:56;;;;;;;11.65;4.10;;;;;;;;;;5072416;28;20044;-79
2021/07/03 10:53:22;;;;;;;8.43;4.25;;;;;;;;;;5072690;28;20024;-78
2021/07/03 10:55:49;;;;;;;4.25;2.90;;;;;;;;;;5075335;28;20043;-79
2021/07/03 10:58:42;;;;;;;7.28;3.75;;;;;;;;;;5054697;28;20044;-78
2021/07/03 11:01:11;;;;;;;4.93;3.40;;;;;;;;;;5052609;28;20049;-77
2021/07/03 11:03:48;;;;;;;6.55;3.78;;;;;;;;;;5052249;28;20044;-78
2021/07/03 11:06:21;;;;;;;9.45;3.33;;;;;;;;;;5053691;28;20037;-78
2021/07/03 11:08:48;;;;;;;4.32;3.05;;;;;;;;;;5056151;28;20487;-78
2021/07/03 11:11:16;;;;;;;4.15;2.90;;;;;;;;;;5054771;28;20037;-79
2021/07/03 11:13:44;;;;;;;5.35;2.90;;;;;;;;;;5054480;28;20048;-78
2021/07/03 11:16:12;;;;;;;10.55;3.55;;;;;;;;;;5059431;28;20120;-78
2021/07/03 11:18:42;;;;;;;9.15;3.00;;;;;;;;;;5058338;28;20098;-79
2021/07/03 11:21:10;;;;;;;6.97;3.50;;;;;;;;;;5056142;28;20356;-76
2021/07/03 11:23:37;;;;;;;4.13;2.85;;;;;;;;;;5058460;28;20083;-80
2021/07/03 11:26:13;;;;;;;9.32;3.40;;;;;;;;;;5056040;28;20025;-77
2021/07/03 11:28:40;;;;;;;4.53;2.95;;;;;;;;;;5057043;28;20032;-77
2021/07/03 11:31:06;;;;;;;3.95;2.90;;;;;;;;;;5057028;28;20494;-77
2021/07/03 11:33:35;;;;;;;4.20;2.80;;;;;;;;;;5057354;28;20086;-75
2021/07/03 11:36:03;;;;;;;8.93;2.90;;;;;;;;;;5055576;28;20037;-76
2021/07/03 11:38:30;;;;;;;6.20;2.85;;;;;;;;;;5058524;28;20037;-78
2021/07/03 11:40:59;;;;;;;8.05;2.90;;;;;;;;;;5057146;28;20083;-76
2021/07/03 11:43:27;;;;;;;6.20;3.25;;;;;;;;;;5058197;28;20077;-78
2021/07/03 11:45:54;;;;;;;4.03;2.60;;;;;;;;;;5056684;28;20051;-80
2021/07/03 11:48:21;;;;;;;4.30;3.10;;;;;;;;;;5057638;28;20049;-80
2021/07/03 11:50:51;;;;;;;5.90;2.97;;;;;;;;;;5060274;28;20041;-77
2021/07/03 11:53:19;;;;;;;7.80;4.20;;;;;;;;;;5078291;28;20033;-79
2021/07/03 11:55:47;;;;;;;3.78;2.72;;;;;;;;;;5078739;28;20348;-75
2021/07/03 11:58:30;;;;;;;7.47;2.55;;;;;;;;;;5075309;28;20036;-77
2021/07/03 12:01:01;;;;;;;3.58;2.65;;;;;;;;;;5074888;28;20131;-76
2021/07/03 12:03:32;;;;;;;4.53;3.30;;;;;;;;;;5076044;28;20070;-78
2021/07/03 12:05:59;;;;;;;4.13;2.78;;;;;;;;;;5078534;28;20028;-81
2021/07/03 12:08:32;;;;;;;4.35;2.53;;;;;;;;;;5079919;28;20036;-76
2021/07/03 12:11:00;;;;;;;5.20;2.65;;;;;;;;;;5075269;28;20039;-75
2021/07/03 12:13:27;;;;;;;5.53;2.72;;;;;;;;;;5075586;28;20059;-76
2021/07/03 12:15:59;;;;;;;8.50;3.85;;;;;;;;;;5075669;28;20033;-79
2021/07/03 12:18:25;;;;;;;5.05;2.53;;;;;;;;;;5076341;28;20041;-80
2021/07/03 12:21:09;;;;;;;4.18;2.65;;;;;;;;;;5075873;28;20032;-79
2021/07/03 12:23:37;;;;;;;4.28;2.50;;;;;;;;;;5076302;28;20036;-85
2021/07/03 12:26:04;;;;;;;4.90;2.75;;;;;;;;;;5080364;28;20394;-83
2021/07/03 12:28:30;;;;;;;4.05;2.85;;;;;;;;;;5072777;28;20417;-79
2021/07/03 12:31:07;;;;;;;3.47;2.65;;;;;;;;;;5061385;28;20033;-82
2021/07/03 12:33:33;;;;;;;6.95;2.40;;;;;;;;;;5059598;28;20039;-85
2021/07/03 12:35:59;;;;;;;5.90;3.10;;;;;;;;;;5059677;28;20036;-81
2021/07/03 12:38:26;;;;;;;3.67;2.50;;;;;;;;;;5076073;28;20036;-79
2021/07/03 12:40:52;;;;;;;3.55;2.60;;;;;;;;;;5079261;28;20070;-79
2021/07/03 12:43:17;;;;;;;12.73;3.00;;;;;;;;;;5079505;28;20036;-82
2021/07/03 12:45:44;;;;;;;4.25;2.53;;;;;;;;;;5084228;28;20048;-82
2021/07/03 12:48:14;;;;;;;4.10;2.50;;;;;;;;;;5082292;28;20032;-83
2021/07/03 12:50:43;;;;;;;3.63;2.55;;;;;;;;;;5075911;28;20074;-78
2021/07/03 12:53:11;;;;;;;4.72;2.80;;;;;;;;;;5075938;28;20085;-78
2021/07/03 12:55:45;;;;;;;4.50;2.72;;;;;;;;;;5078652;28;20402;-79
2021/07/03 12:58:31;;;;;;;4.55;2.63;;;;;;;;;;5080986;28;20092;-84
2021/07/03 13:00:57;;;;;;;5.22;3.08;;;;;;;;;;5084316;28;20115;-81
2021/07/03 13:03:23;;;;;;;5.43;3.15;;;;;;;;;;5084569;28;20062;-85
2021/07/03 13:06:00;;;;;;;4.22;2.78;;;;;;;;;;5077517;28;20036;-79
2021/07/03 13:08:26;;;;;;;10.63;5.53;;;;;;;;;;5078699;28;20036;-79
2021/07/03 13:10:52;;;;;;;6.05;4.03;;;;;;;;;;5080106;28;20033;-78
2021/07/03 13:13:17;;;;;;;3.85;2.92;;;;;;;;;;5077235;28;20037;-79
2021/07/03 13:15:43;;;;;;;3.17;2.53;;;;;;;;;;5081487;28;20038;-81
2021/07/03 13:18:08;;;;;;;3.60;2.97;;;;;;;;;;5081490;28;20040;-80
2021/07/03 13:20:34;;;;;;;4.18;2.50;;;;;;;;;;5076481;28;20051;-78
2021/07/03 13:22:59;;;;;;;4.78;3.00;;;;;;;;;;5077262;28;20033;-77
2021/07/03 13:25:26;;;;;;;3.72;2.78;;;;;;;;;;5076541;28;20037;-79
2021/07/03 13:27:51;;;;;;;7.25;2.55;;;;;;;;;;5080977;28;20039;-79
2021/07/03 13:30:17;;;;;;;2.45;2.22;;;;;;;;;;5081305;28;20101;-80
2021/07/03 13:32:44;;;;;;;5.25;3.00;;;;;;;;;;5082194;28;20493;-79
2021/07/03 13:35:14;;;;;;;6.07;2.80;;;;;;;;;;5076466;28;20033;-79
2021/07/03 13:37:40;;;;;;;2.38;2.17;;;;;;;;;;5075303;28;20045;-77
2021/07/03 13:40:07;;;;;;;4.78;2.67;;;;;;;;;;5075092;28;20032;-79
2021/07/03 13:42:33;;;;;;;6.35;3.10;;;;;;;;;;5074894;28;20066;-77
2021/07/03 13:44:59;;;;;;;3.95;2.47;;;;;;;;;;5071469;28;20024;-78
2021/07/03 13:47:25;;;;;;;5.18;2.80;;;;;;;;;;5073550;28;20036;-78
2021/07/03 13:49:50;;;;;;;6.55;2.60;;;;;;;;;;5075836;28;20033;-78
2021/07/03 13:52:15;;;;;;;3.83;2.50;;;;;;;;;;5075483;28;20039;-78
2021/07/03 13:54:41;;;;;;;5.38;2.80;;;;;;;;;;5075018;28;20368;-77
2021/07/03 13:57:07;;;;;;;3.45;2.60;;;;;;;;;;5072481;28;20032;-77
2021/07/03 13:59:32;;;;;;;4.18;2.65;;;;;;;;;;5073636;28;20086;-78
2021/07/03 14:01:58;;;;;;;7.85;2.40;;;;;;;;;;5073167;28;20123;-77
2021/07/03 14:04:23;;;;;;;3.47;2.40;;;;;;;;;;5073702;28;20094;-77
2021/07/03 14:06:48;;;;;;;4.22;2.80;;;;;;;;;;5074631;28;20032;-77
2021/07/03 14:09:14;;;;;;;4.18;2.75;;;;;;;;;;5074622;28;20044;-78
2021/07/03 14:11:40;;;;;;;6.00;2.80;;;;;;;;;;5076307;28;20071;-79
2021/07/03 14:14:05;;;;;;;2.97;2.15;;;;;;;;;;5077731;28;20068;-78
2021/07/03 14:16:30;;;;;;;7.05;3.30;;;;;;;;;;5073532;28;20040;-77
2021/07/03 14:18:56;;;;;;;4.90;2.50;;;;;;;;;;5074958;28;20017;-77
2021/07/03 14:21:22;;;;;;;3.85;2.60;;;;;;;;;;5073845;28;20036;-78
2021/07/03 14:23:47;;;;;;;5.15;2.15;;;;;;;;;;5074133;28;20359;-78
2021/07/03 14:26:12;;;;;;;4.85;2.45;;;;;;;;;;5074231;28;20459;-77
2021/07/03 14:28:38;;;;;;;4.55;2.63;;;;;;;;;;5072865;28;20032;-77
2021/07/03 14:31:03;;;;;;;3.92;2.40;;;;;;;;;;5073239;28;20086;-76
2021/07/03 14:33:29;;;;;;;9.48;2.47;;;;;;;;;;5073337;28;20045;-76